sensor_id;sensor_type;location;lat;lon;timestamp;P1;durP1;ratioP1;P2;durP2;ratioP2
62535;SDS011;63050;47.514;18.920;2023-04-03T00:00:19;7.40;;;5.00;;
62535;SDS011;63050;47.514;18.920;2023-04-03T00:05:21;5.50;;;4.60;;
62535;SDS011;63050;47.514;18.920;2023-04-03T00:10:22;5.30;;;4.80;;
62535;SDS011;63050;47.514;18.920;2023-04-03T00:15:24;5.20;;;4.60;;
62535;SDS011;63050;47.514;18.920;2023-04-03T00:20:25;6.10;;;4.80;;
62535;SDS011;63050;47.514;18.920;2023-04-03T00:25:27;5.30;;;4.70;;
62535;SDS011;63050;47.514;18.920;2023-04-03T00:30:30;4.40;;;3.80;;
62535;SDS011;63050;47.514;18.920;2023-04-03T00:35:31;4.90;;;3.30;;
62535;SDS011;63050;47.514;18.920;2023-04-03T00:40:36;5.80;;;4.50;;
62535;SDS011;63050;47.514;18.920;2023-04-03T00:45:40;5.40;;;3.50;;
62535;SDS011;63050;47.514;18.920;2023-04-03T00:50:43;5.90;;;4.30;;
62535;SDS011;63050;47.514;18.920;2023-04-03T00:55:45;5.30;;;3.10;;
62535;SDS011;63050;47.514;18.920;2023-04-03T01:00:50;5.10;;;3.70;;
62535;SDS011;63050;47.514;18.920;2023-04-03T01:05:57;4.50;;;4.10;;
62535;SDS011;63050;47.514;18.920;2023-04-03T01:10:58;6.20;;;4.20;;
62535;SDS011;63050;47.514;18.920;2023-04-03T01:16:04;4.90;;;3.40;;
62535;SDS011;63050;47.514;18.920;2023-04-03T01:21:13;4.80;;;3.50;;
62535;SDS011;63050;47.514;18.920;2023-04-03T01:26:24;4.50;;;3.40;;
62535;SDS011;63050;47.514;18.920;2023-04-03T01:31:28;4.00;;;3.40;;
62535;SDS011;63050;47.514;18.920;2023-04-03T01:36:33;4.70;;;2.60;;
62535;SDS011;63050;47.514;18.920;2023-04-03T01:41:35;3.30;;;2.90;;
62535;SDS011;63050;47.514;18.920;2023-04-03T01:46:44;4.10;;;2.90;;
62535;SDS011;63050;47.514;18.920;2023-04-03T01:51:47;4.30;;;2.60;;
62535;SDS011;63050;47.514;18.920;2023-04-03T01:56:49;4.20;;;3.30;;
62535;SDS011;63050;47.514;18.920;2023-04-03T02:01:51;2.80;;;2.40;;
62535;SDS011;63050;47.514;18.920;2023-04-03T02:06:54;3.20;;;2.80;;
62535;SDS011;63050;47.514;18.920;2023-04-03T02:11:55;3.70;;;2.70;;
62535;SDS011;63050;47.514;18.920;2023-04-03T02:16:58;4.20;;;2.70;;
62535;SDS011;63050;47.514;18.920;2023-04-03T02:22:02;4.90;;;3.10;;
62535;SDS011;63050;47.514;18.920;2023-04-03T02:27:04;4.70;;;2.80;;
62535;SDS011;63050;47.514;18.920;2023-04-03T02:32:06;4.40;;;2.50;;
62535;SDS011;63050;47.514;18.920;2023-04-03T02:37:09;3.80;;;2.30;;
62535;SDS011;63050;47.514;18.920;2023-04-03T02:42:11;3.70;;;2.90;;
62535;SDS011;63050;47.514;18.920;2023-04-03T02:47:13;5.20;;;3.60;;
62535;SDS011;63050;47.514;18.920;2023-04-03T02:52:15;4.10;;;2.80;;
62535;SDS011;63050;47.514;18.920;2023-04-03T02:57:17;3.50;;;2.60;;
62535;SDS011;63050;47.514;18.920;2023-04-03T03:02:21;4.30;;;2.70;;
62535;SDS011;63050;47.514;18.920;2023-04-03T03:07:22;4.70;;;3.10;;
62535;SDS011;63050;47.514;18.920;2023-04-03T03:12:24;3.70;;;2.20;;
62535;SDS011;63050;47.514;18.920;2023-04-03T03:17:26;3.00;;;1.90;;
62535;SDS011;63050;47.514;18.920;2023-04-03T03:22:27;4.50;;;2.80;;
62535;SDS011;63050;47.514;18.920;2023-04-03T03:27:29;3.50;;;2.20;;
62535;SDS011;63050;47.514;18.920;2023-04-03T03:32:32;4.40;;;2.50;;
62535;SDS011;63050;47.514;18.920;2023-04-03T03:37:35;3.80;;;2.40;;
62535;SDS011;63050;47.514;18.920;2023-04-03T03:42:37;4.10;;;2.60;;
62535;SDS011;63050;47.514;18.920;2023-04-03T03:47:38;4.50;;;2.70;;
62535;SDS011;63050;47.514;18.920;2023-04-03T03:52:41;4.50;;;2.60;;
62535;SDS011;63050;47.514;18.920;2023-04-03T03:57:43;3.50;;;2.10;;
62535;SDS011;63050;47.514;18.920;2023-04-03T04:02:45;5.00;;;2.70;;
62535;SDS011;63050;47.514;18.920;2023-04-03T04:07:49;4.20;;;2.40;;
62535;SDS011;63050;47.514;18.920;2023-04-03T04:12:52;4.40;;;2.80;;
62535;SDS011;63050;47.514;18.920;2023-04-03T04:17:56;4.90;;;3.20;;
62535;SDS011;63050;47.514;18.920;2023-04-03T04:22:58;6.50;;;3.50;;
62535;SDS011;63050;47.514;18.920;2023-04-03T04:27:59;4.60;;;2.60;;
62535;SDS011;63050;47.514;18.920;2023-04-03T04:33:02;4.70;;;2.60;;
62535;SDS011;63050;47.514;18.920;2023-04-03T04:38:04;4.20;;;2.40;;
62535;SDS011;63050;47.514;18.920;2023-04-03T04:43:06;3.30;;;2.50;;
62535;SDS011;63050;47.514;18.920;2023-04-03T04:48:09;3.40;;;2.50;;
62535;SDS011;63050;47.514;18.920;2023-04-03T04:53:11;3.60;;;2.30;;
62535;SDS011;63050;47.514;18.920;2023-04-03T04:58:13;4.10;;;2.40;;
62535;SDS011;63050;47.514;18.920;2023-04-03T05:03:16;3.20;;;1.30;;
62535;SDS011;63050;47.514;18.920;2023-04-03T05:08:18;4.60;;;2.10;;
62535;SDS011;63050;47.514;18.920;2023-04-03T05:13:21;3.20;;;1.80;;
62535;SDS011;63050;47.514;18.920;2023-04-03T05:18:23;4.40;;;2.60;;
62535;SDS011;63050;47.514;18.920;2023-04-03T05:23:25;3.40;;;2.40;;
62535;SDS011;63050;47.514;18.920;2023-04-03T05:28:28;4.10;;;2.80;;
62535;SDS011;63050;47.514;18.920;2023-04-03T05:33:31;4.10;;;2.70;;
62535;SDS011;63050;47.514;18.920;2023-04-03T05:38:33;3.60;;;2.30;;
62535;SDS011;63050;47.514;18.920;2023-04-03T05:43:36;3.20;;;2.10;;
62535;SDS011;63050;47.514;18.920;2023-04-03T05:48:40;3.60;;;2.30;;
62535;SDS011;63050;47.514;18.920;2023-04-03T05:53:44;3.20;;;2.40;;
62535;SDS011;63050;47.514;18.920;2023-04-03T05:58:47;4.20;;;2.90;;
62535;SDS011;63050;47.514;18.920;2023-04-03T06:03:49;3.30;;;2.40;;
62535;SDS011;63050;47.514;18.920;2023-04-03T06:08:51;3.20;;;2.30;;
62535;SDS011;63050;47.514;18.920;2023-04-03T06:13:53;3.00;;;2.30;;
62535;SDS011;63050;47.514;18.920;2023-04-03T06:18:56;3.10;;;2.10;;
62535;SDS011;63050;47.514;18.920;2023-04-03T06:23:58;4.00;;;2.50;;
62535;SDS011;63050;47.514;18.920;2023-04-03T06:29:00;3.00;;;2.20;;
62535;SDS011;63050;47.514;18.920;2023-04-03T06:34:02;3.10;;;1.90;;
62535;SDS011;63050;47.514;18.920;2023-04-03T06:39:04;3.30;;;2.60;;
62535;SDS011;63050;47.514;18.920;2023-04-03T06:44:06;2.70;;;2.00;;
62535;SDS011;63050;47.514;18.920;2023-04-03T06:49:11;3.20;;;2.40;;
62535;SDS011;63050;47.514;18.920;2023-04-03T06:54:13;3.70;;;2.70;;
62535;SDS011;63050;47.514;18.920;2023-04-03T06:59:15;4.70;;;2.00;;
62535;SDS011;63050;47.514;18.920;2023-04-03T07:04:18;3.80;;;2.30;;
62535;SDS011;63050;47.514;18.920;2023-04-03T07:09:20;3.10;;;2.00;;
62535;SDS011;63050;47.514;18.920;2023-04-03T07:14:22;3.30;;;1.70;;
62535;SDS011;63050;47.514;18.920;2023-04-03T07:19:23;2.50;;;1.60;;
62535;SDS011;63050;47.514;18.920;2023-04-03T07:24:28;2.70;;;1.80;;
62535;SDS011;63050;47.514;18.920;2023-04-03T07:29:29;2.50;;;1.60;;
62535;SDS011;63050;47.514;18.920;2023-04-03T07:34:31;3.20;;;2.30;;
62535;SDS011;63050;47.514;18.920;2023-04-03T07:39:33;2.80;;;1.70;;
62535;SDS011;63050;47.514;18.920;2023-04-03T07:44:35;2.90;;;2.00;;
62535;SDS011;63050;47.514;18.920;2023-04-03T07:49:37;2.90;;;1.90;;
62535;SDS011;63050;47.514;18.920;2023-04-03T07:54:41;2.70;;;1.90;;
62535;SDS011;63050;47.514;18.920;2023-04-03T07:59:43;3.50;;;1.60;;
62535;SDS011;63050;47.514;18.920;2023-04-03T08:04:45;2.30;;;1.50;;
62535;SDS011;63050;47.514;18.920;2023-04-03T08:09:46;7.90;;;3.80;;
62535;SDS011;63050;47.514;18.920;2023-04-03T08:14:48;2.20;;;1.30;;
62535;SDS011;63050;47.514;18.920;2023-04-03T08:19:50;2.40;;;1.50;;
62535;SDS011;63050;47.514;18.920;2023-04-03T08:24:52;2.60;;;1.30;;
62535;SDS011;63050;47.514;18.920;2023-04-03T08:29:54;2.30;;;1.30;;
62535;SDS011;63050;47.514;18.920;2023-04-03T08:34:56;2.00;;;1.30;;
62535;SDS011;63050;47.514;18.920;2023-04-03T08:39:58;1.50;;;1.00;;
62535;SDS011;63050;47.514;18.920;2023-04-03T08:50:16;3.70;;;1.40;;
62535;SDS011;63050;47.514;18.920;2023-04-03T08:55:30;1.70;;;1.20;;
62535;SDS011;63050;47.514;18.920;2023-04-03T09:00:37;1.80;;;1.20;;
62535;SDS011;63050;47.514;18.920;2023-04-03T09:05:43;2.20;;;1.40;;
62535;SDS011;63050;47.514;18.920;2023-04-03T09:10:58;2.80;;;1.30;;
62535;SDS011;63050;47.514;18.920;2023-04-03T09:16:11;1.80;;;1.10;;
62535;SDS011;63050;47.514;18.920;2023-04-03T09:21:29;1.80;;;1.20;;
62535;SDS011;63050;47.514;18.920;2023-04-03T09:26:34;1.90;;;1.20;;
62535;SDS011;63050;47.514;18.920;2023-04-03T09:31:42;1.70;;;1.00;;
62535;SDS011;63050;47.514;18.920;2023-04-03T09:36:46;1.60;;;1.00;;
62535;SDS011;63050;47.514;18.920;2023-04-03T09:46:59;2.40;;;1.10;;
62535;SDS011;63050;47.514;18.920;2023-04-03T09:52:15;2.00;;;1.30;;
62535;SDS011;63050;47.514;18.920;2023-04-03T09:57:28;2.00;;;0.90;;
62535;SDS011;63050;47.514;18.920;2023-04-03T10:02:37;1.60;;;1.00;;
62535;SDS011;63050;47.514;18.920;2023-04-03T10:07:40;2.70;;;1.20;;
62535;SDS011;63050;47.514;18.920;2023-04-03T10:12:41;1.50;;;1.00;;
62535;SDS011;63050;47.514;18.920;2023-04-03T10:28:40;2.00;;;1.00;;
62535;SDS011;63050;47.514;18.920;2023-04-03T10:34:14;3.70;;;1.10;;
62535;SDS011;63050;47.514;18.920;2023-04-03T10:44:36;2.60;;;1.60;;
62535;SDS011;63050;47.514;18.920;2023-04-03T11:00:25;1.30;;;0.90;;
62535;SDS011;63050;47.514;18.920;2023-04-03T11:05:47;1.70;;;1.00;;
62535;SDS011;63050;47.514;18.920;2023-04-03T11:10:51;1.90;;;0.90;;
62535;SDS011;63050;47.514;18.920;2023-04-03T11:15:56;1.30;;;0.80;;
62535;SDS011;63050;47.514;18.920;2023-04-03T11:21:09;1.60;;;1.00;;
62535;SDS011;63050;47.514;18.920;2023-04-03T11:26:15;1.40;;;0.90;;
62535;SDS011;63050;47.514;18.920;2023-04-03T11:31:41;1.70;;;0.90;;
62535;SDS011;63050;47.514;18.920;2023-04-03T11:36:45;1.60;;;0.90;;
62535;SDS011;63050;47.514;18.920;2023-04-03T11:41:50;3.00;;;1.10;;
62535;SDS011;63050;47.514;18.920;2023-04-03T11:46:56;4.30;;;1.50;;
62535;SDS011;63050;47.514;18.920;2023-04-03T11:52:01;4.20;;;1.60;;
62535;SDS011;63050;47.514;18.920;2023-04-03T12:02:51;2.70;;;1.30;;
62535;SDS011;63050;47.514;18.920;2023-04-03T12:13:17;3.30;;;1.00;;
62535;SDS011;63050;47.514;18.920;2023-04-03T12:34:23;2.60;;;1.50;;
62535;SDS011;63050;47.514;18.920;2023-04-03T12:50:30;2.40;;;1.30;;
62535;SDS011;63050;47.514;18.920;2023-04-03T12:55:33;2.10;;;1.20;;
62535;SDS011;63050;47.514;18.920;2023-04-03T13:00:35;2.00;;;1.30;;
62535;SDS011;63050;47.514;18.920;2023-04-03T13:05:39;1.60;;;1.00;;
62535;SDS011;63050;47.514;18.920;2023-04-03T13:10:49;2.20;;;1.20;;
62535;SDS011;63050;47.514;18.920;2023-04-03T13:15:54;9.20;;;6.00;;
62535;SDS011;63050;47.514;18.920;2023-04-03T13:20:57;2.00;;;1.20;;
62535;SDS011;63050;47.514;18.920;2023-04-03T13:26:02;3.50;;;1.50;;
62535;SDS011;63050;47.514;18.920;2023-04-03T13:31:06;1.90;;;1.20;;
62535;SDS011;63050;47.514;18.920;2023-04-03T13:41:24;1.80;;;1.30;;
62535;SDS011;63050;47.514;18.920;2023-04-03T13:46:36;4.20;;;1.40;;
62535;SDS011;63050;47.514;18.920;2023-04-03T13:51:38;2.20;;;1.10;;
62535;SDS011;63050;47.514;18.920;2023-04-03T13:56:40;1.70;;;1.00;;
62535;SDS011;63050;47.514;18.920;2023-04-03T14:01:50;3.10;;;0.90;;
62535;SDS011;63050;47.514;18.920;2023-04-03T14:07:03;4.70;;;1.30;;
62535;SDS011;63050;47.514;18.920;2023-04-03T14:12:06;1.50;;;1.10;;
62535;SDS011;63050;47.514;18.920;2023-04-03T14:17:28;1.80;;;1.20;;
62535;SDS011;63050;47.514;18.920;2023-04-03T14:22:30;3.80;;;1.20;;
62535;SDS011;63050;47.514;18.920;2023-04-03T14:27:37;1.60;;;0.90;;
62535;SDS011;63050;47.514;18.920;2023-04-03T14:32:43;4.40;;;2.00;;
62535;SDS011;63050;47.514;18.920;2023-04-03T14:37:46;3.40;;;1.50;;
62535;SDS011;63050;47.514;18.920;2023-04-03T14:42:48;5.90;;;1.50;;
62535;SDS011;63050;47.514;18.920;2023-04-03T14:47:54;2.60;;;1.50;;
62535;SDS011;63050;47.514;18.920;2023-04-03T14:52:57;2.90;;;1.30;;
62535;SDS011;63050;47.514;18.920;2023-04-03T14:58:00;2.30;;;1.70;;
62535;SDS011;63050;47.514;18.920;2023-04-03T15:03:01;3.30;;;1.50;;
62535;SDS011;63050;47.514;18.920;2023-04-03T15:08:02;2.40;;;1.60;;
62535;SDS011;63050;47.514;18.920;2023-04-03T15:13:03;4.50;;;1.50;;
62535;SDS011;63050;47.514;18.920;2023-04-03T15:18:05;2.70;;;1.40;;
62535;SDS011;63050;47.514;18.920;2023-04-03T15:23:08;2.90;;;1.90;;
62535;SDS011;63050;47.514;18.920;2023-04-03T15:28:13;3.60;;;1.60;;
62535;SDS011;63050;47.514;18.920;2023-04-03T15:33:20;2.50;;;1.60;;
62535;SDS011;63050;47.514;18.920;2023-04-03T15:38:21;2.50;;;1.60;;
62535;SDS011;63050;47.514;18.920;2023-04-03T15:43:22;4.00;;;1.70;;
62535;SDS011;63050;47.514;18.920;2023-04-03T15:48:25;3.90;;;1.90;;
62535;SDS011;63050;47.514;18.920;2023-04-03T15:53:26;3.30;;;1.80;;
62535;SDS011;63050;47.514;18.920;2023-04-03T15:58:28;3.60;;;1.70;;
62535;SDS011;63050;47.514;18.920;2023-04-03T16:03:30;2.60;;;1.90;;
62535;SDS011;63050;47.514;18.920;2023-04-03T16:08:31;2.60;;;1.80;;
62535;SDS011;63050;47.514;18.920;2023-04-03T16:13:32;3.70;;;1.80;;
62535;SDS011;63050;47.514;18.920;2023-04-03T16:18:35;5.00;;;2.00;;
62535;SDS011;63050;47.514;18.920;2023-04-03T16:23:37;2.80;;;1.80;;
62535;SDS011;63050;47.514;18.920;2023-04-03T16:28:39;3.10;;;1.70;;
62535;SDS011;63050;47.514;18.920;2023-04-03T16:33:41;3.20;;;1.70;;
62535;SDS011;63050;47.514;18.920;2023-04-03T16:38:43;3.10;;;1.90;;
62535;SDS011;63050;47.514;18.920;2023-04-03T16:43:44;3.40;;;1.90;;
62535;SDS011;63050;47.514;18.920;2023-04-03T16:48:46;3.80;;;2.20;;
62535;SDS011;63050;47.514;18.920;2023-04-03T16:53:47;5.00;;;2.50;;
62535;SDS011;63050;47.514;18.920;2023-04-03T16:58:48;5.00;;;2.40;;
62535;SDS011;63050;47.514;18.920;2023-04-03T17:03:50;3.40;;;1.90;;
62535;SDS011;63050;47.514;18.920;2023-04-03T17:08:52;5.60;;;2.00;;
62535;SDS011;63050;47.514;18.920;2023-04-03T17:14:03;2.50;;;1.60;;
62535;SDS011;63050;47.514;18.920;2023-04-03T17:19:06;2.90;;;2.10;;
62535;SDS011;63050;47.514;18.920;2023-04-03T17:24:07;3.70;;;1.70;;
62535;SDS011;63050;47.514;18.920;2023-04-03T17:29:12;3.50;;;2.10;;
62535;SDS011;63050;47.514;18.920;2023-04-03T17:34:14;2.50;;;1.70;;
62535;SDS011;63050;47.514;18.920;2023-04-03T17:39:16;3.00;;;1.90;;
62535;SDS011;63050;47.514;18.920;2023-04-03T17:44:18;5.40;;;3.00;;
62535;SDS011;63050;47.514;18.920;2023-04-03T17:49:21;4.00;;;2.40;;
62535;SDS011;63050;47.514;18.920;2023-04-03T17:54:25;5.70;;;2.00;;
62535;SDS011;63050;47.514;18.920;2023-04-03T17:59:27;3.70;;;2.00;;
62535;SDS011;63050;47.514;18.920;2023-04-03T18:04:28;3.80;;;2.20;;
62535;SDS011;63050;47.514;18.920;2023-04-03T18:09:32;4.40;;;2.10;;
62535;SDS011;63050;47.514;18.920;2023-04-03T18:14:33;3.10;;;2.10;;
62535;SDS011;63050;47.514;18.920;2023-04-03T18:19:38;4.00;;;2.20;;
62535;SDS011;63050;47.514;18.920;2023-04-03T18:24:40;3.00;;;1.90;;
62535;SDS011;63050;47.514;18.920;2023-04-03T18:29:44;3.80;;;2.20;;
62535;SDS011;63050;47.514;18.920;2023-04-03T18:34:48;3.40;;;2.00;;
62535;SDS011;63050;47.514;18.920;2023-04-03T18:39:50;3.00;;;2.00;;
62535;SDS011;63050;47.514;18.920;2023-04-03T18:44:55;8.50;;;5.80;;
62535;SDS011;63050;47.514;18.920;2023-04-03T18:49:59;2.70;;;2.00;;
62535;SDS011;63050;47.514;18.920;2023-04-03T18:55:00;3.60;;;2.10;;
62535;SDS011;63050;47.514;18.920;2023-04-03T19:00:02;2.30;;;1.70;;
62535;SDS011;63050;47.514;18.920;2023-04-03T19:05:05;2.40;;;1.80;;
62535;SDS011;63050;47.514;18.920;2023-04-03T19:10:08;3.40;;;1.90;;
62535;SDS011;63050;47.514;18.920;2023-04-03T19:15:20;3.60;;;1.70;;
62535;SDS011;63050;47.514;18.920;2023-04-03T19:20:23;3.30;;;2.10;;
62535;SDS011;63050;47.514;18.920;2023-04-03T19:25:25;2.40;;;1.70;;
62535;SDS011;63050;47.514;18.920;2023-04-03T19:30:27;7.00;;;2.10;;
62535;SDS011;63050;47.514;18.920;2023-04-03T19:35:29;2.40;;;1.70;;
62535;SDS011;63050;47.514;18.920;2023-04-03T19:40:31;3.00;;;2.10;;
62535;SDS011;63050;47.514;18.920;2023-04-03T19:45:33;4.30;;;1.60;;
62535;SDS011;63050;47.514;18.920;2023-04-03T19:50:36;2.80;;;1.50;;
62535;SDS011;63050;47.514;18.920;2023-04-03T19:55:38;3.60;;;2.30;;
62535;SDS011;63050;47.514;18.920;2023-04-03T20:00:41;4.90;;;2.00;;
62535;SDS011;63050;47.514;18.920;2023-04-03T20:05:44;2.70;;;1.70;;
62535;SDS011;63050;47.514;18.920;2023-04-03T20:10:47;3.00;;;1.90;;
62535;SDS011;63050;47.514;18.920;2023-04-03T20:15:49;3.20;;;1.90;;
62535;SDS011;63050;47.514;18.920;2023-04-03T20:20:52;3.00;;;2.10;;
62535;SDS011;63050;47.514;18.920;2023-04-03T20:25:56;4.40;;;1.80;;
62535;SDS011;63050;47.514;18.920;2023-04-03T20:30:58;3.50;;;1.70;;
62535;SDS011;63050;47.514;18.920;2023-04-03T20:36:02;3.60;;;2.00;;
62535;SDS011;63050;47.514;18.920;2023-04-03T20:41:04;4.10;;;2.00;;
62535;SDS011;63050;47.514;18.920;2023-04-03T20:46:06;2.80;;;1.60;;
62535;SDS011;63050;47.514;18.920;2023-04-03T20:51:11;4.80;;;1.80;;
62535;SDS011;63050;47.514;18.920;2023-04-03T20:56:15;4.60;;;2.60;;
62535;SDS011;63050;47.514;18.920;2023-04-03T21:23:03;3.20;;;1.70;;
62535;SDS011;63050;47.514;18.920;2023-04-03T21:28:04;3.40;;;2.20;;
62535;SDS011;63050;47.514;18.920;2023-04-03T21:33:06;2.90;;;1.80;;
62535;SDS011;63050;47.514;18.920;2023-04-03T21:38:06;3.80;;;2.20;;
62535;SDS011;63050;47.514;18.920;2023-04-03T21:43:08;4.20;;;2.00;;
62535;SDS011;63050;47.514;18.920;2023-04-03T21:48:10;2.20;;;1.70;;
62535;SDS011;63050;47.514;18.920;2023-04-03T21:53:14;4.30;;;1.90;;
62535;SDS011;63050;47.514;18.920;2023-04-03T21:58:16;5.40;;;1.80;;
62535;SDS011;63050;47.514;18.920;2023-04-03T22:03:19;4.50;;;1.90;;
62535;SDS011;63050;47.514;18.920;2023-04-03T22:08:23;3.10;;;1.80;;
62535;SDS011;63050;47.514;18.920;2023-04-03T22:13:24;2.60;;;1.60;;
62535;SDS011;63050;47.514;18.920;2023-04-03T22:18:25;2.90;;;1.70;;
62535;SDS011;63050;47.514;18.920;2023-04-03T22:23:27;2.60;;;1.80;;
62535;SDS011;63050;47.514;18.920;2023-04-03T22:28:29;3.50;;;1.60;;
62535;SDS011;63050;47.514;18.920;2023-04-03T22:33:31;3.10;;;1.70;;
62535;SDS011;63050;47.514;18.920;2023-04-03T22:38:33;3.10;;;1.50;;
62535;SDS011;63050;47.514;18.920;2023-04-03T22:43:35;3.20;;;1.80;;
62535;SDS011;63050;47.514;18.920;2023-04-03T22:48:39;3.30;;;1.60;;
62535;SDS011;63050;47.514;18.920;2023-04-03T22:53:42;3.10;;;1.40;;
62535;SDS011;63050;47.514;18.920;2023-04-03T22:58:44;4.20;;;1.40;;
62535;SDS011;63050;47.514;18.920;2023-04-03T23:03:47;3.70;;;1.30;;
62535;SDS011;63050;47.514;18.920;2023-04-03T23:08:49;3.70;;;1.60;;
62535;SDS011;63050;47.514;18.920;2023-04-03T23:13:52;2.50;;;1.40;;
62535;SDS011;63050;47.514;18.920;2023-04-03T23:18:53;3.40;;;1.70;;
62535;SDS011;63050;47.514;18.920;2023-04-03T23:23:55;2.60;;;1.60;;
62535;SDS011;63050;47.514;18.920;2023-04-03T23:28:57;3.50;;;1.70;;
62535;SDS011;63050;47.514;18.920;2023-04-03T23:33:59;1.90;;;1.30;;
62535;SDS011;63050;47.514;18.920;2023-04-03T23:39:01;4.10;;;1.50;;
62535;SDS011;63050;47.514;18.920;2023-04-03T23:44:04;3.30;;;1.70;;
62535;SDS011;63050;47.514;18.920;2023-04-03T23:49:06;2.00;;;1.50;;
62535;SDS011;63050;47.514;18.920;2023-04-03T23:54:08;2.40;;;1.40;;
62535;SDS011;63050;47.514;18.920;2023-04-03T23:59:10;3.50;;;1.50;;
